Time;durP1;ratioP1;P1;durP2;ratioP2;P2;SDS_P1;SDS_P2;PMS_P1;PMS_P2;Temp;Humidity;BMP_temperature;BMP_pressure;BME280_temperature;BME280_humidity;BME280_pressure;Samples;Min_cycle;Max_cycle;Signal;HPM_P1;HPM_P2
2022/11/06 00:01:44;;;;;;;26.82;16.30;;;;;;;8.18;100.00;99058.33;2156270;83;21002;-87
2022/11/06 00:04:45;;;;;;;27.93;15.98;;;;;;;8.17;100.00;99060.61;2156145;83;20982;-87
2022/11/06 00:07:46;;;;;;;24.63;15.75;;;;;;;8.16;100.00;99069.41;2155652;83;20942;-87
2022/11/06 00:10:47;;;;;;;31.65;16.52;;;;;;;8.16;100.00;99066.80;2155564;83;21114;-88
2022/11/06 00:13:48;;;;;;;27.50;14.90;;;;;;;8.14;100.00;99062.73;2155128;83;20939;-88
2022/11/06 00:16:49;;;;;;;31.40;17.37;;;;;;;8.10;100.00;99066.59;2156799;83;20998;-87
2022/11/06 00:19:49;;;;;;;30.05;16.45;;;;;;;8.10;100.00;99073.13;2155326;83;21530;-91
2022/11/06 00:22:50;;;;;;;22.55;14.90;;;;;;;8.06;100.00;99076.53;2154658;83;21002;-90
2022/11/06 00:25:55;;;;;;;31.25;17.77;;;;;;;8.02;100.00;99071.28;2154676;82;21552;-88
2022/11/06 00:28:53;;;;;;;32.95;17.70;;;;;;;8.00;100.00;99079.75;2172343;82;20966;-90
2022/11/06 00:31:54;;;;;;;28.15;16.10;;;;;;;8.01;100.00;99077.96;2173561;82;21080;-87
2022/11/06 00:34:55;;;;;;;28.90;15.95;;;;;;;7.97;100.00;99083.49;2172716;82;21535;-87
2022/11/06 00:37:56;;;;;;;25.48;16.40;;;;;;;7.95;100.00;99076.77;2172382;82;21545;-88
2022/11/06 00:40:56;;;;;;;28.92;17.98;;;;;;;7.97;100.00;99076.97;2172186;82;21061;-89
2022/11/06 00:43:57;;;;;;;37.85;19.85;;;;;;;7.96;100.00;99079.73;2172240;82;21524;-89
2022/11/06 00:46:58;;;;;;;28.40;16.77;;;;;;;7.94;100.00;99085.08;2172250;82;21036;-87
2022/11/06 00:49:59;;;;;;;26.25;16.87;;;;;;;7.93;100.00;99091.27;2172587;82;21012;-88
2022/11/06 00:53:00;;;;;;;27.02;16.62;;;;;;;7.97;100.00;99090.50;2172371;82;21033;-89
2022/11/06 00:56:00;;;;;;;27.95;16.12;;;;;;;7.97;100.00;99093.92;2171963;82;21040;-88
2022/11/06 00:59:01;;;;;;;26.80;16.77;;;;;;;7.98;100.00;99103.38;2172328;82;21020;-90
2022/11/06 01:02:02;;;;;;;28.60;15.80;;;;;;;8.01;100.00;99105.34;2172146;82;21016;-87
2022/11/06 01:05:02;;;;;;;25.32;16.02;;;;;;;8.01;100.00;99108.77;2172397;82;21096;-87
2022/11/06 01:08:03;;;;;;;27.80;15.83;;;;;;;7.99;100.00;99106.80;2172567;82;21029;-87
2022/11/06 01:11:04;;;;;;;23.45;14.85;;;;;;;8.01;100.00;99107.45;2172567;82;21052;-87
2022/11/06 01:14:05;;;;;;;29.85;17.27;;;;;;;8.03;100.00;99100.78;2172550;82;20982;-88
2022/11/06 01:17:06;;;;;;;28.27;15.75;;;;;;;8.03;100.00;99107.30;2171914;82;21552;-89
2022/11/06 01:20:07;;;;;;;33.08;16.05;;;;;;;8.04;100.00;99105.02;2170750;82;21005;-89
2022/11/06 01:23:07;;;;;;;25.12;15.72;;;;;;;8.04;100.00;99101.92;2171208;82;20934;-90
2022/11/06 01:26:11;;;;;;;30.77;16.97;;;;;;;8.02;100.00;99105.18;2174438;81;21065;-86
2022/11/06 01:29:11;;;;;;;30.17;16.17;;;;;;;8.01;100.00;99110.55;2174698;81;21029;-87
2022/11/06 01:32:11;;;;;;;27.45;16.17;;;;;;;8.05;100.00;99106.69;2174943;82;21045;-88
2022/11/06 01:35:12;;;;;;;29.75;16.90;;;;;;;8.07;100.00;99104.73;2174943;82;20970;-88
2022/11/06 01:38:13;;;;;;;29.32;16.80;;;;;;;8.11;100.00;99102.14;2174792;82;20982;-88
2022/11/06 01:41:14;;;;;;;25.68;16.40;;;;;;;8.11;100.00;99106.05;2174621;82;20989;-88
2022/11/06 01:44:15;;;;;;;25.00;17.67;;;;;;;8.12;100.00;99105.08;2174523;82;20985;-88
2022/11/06 01:47:16;;;;;;;30.40;17.52;;;;;;;8.11;100.00;99107.36;2174756;82;21040;-86
2022/11/06 01:50:17;;;;;;;29.75;15.15;;;;;;;8.10;100.00;99104.42;2174970;82;21509;-87
2022/11/06 01:53:17;;;;;;;28.42;17.87;;;;;;;8.02;100.00;99105.67;2175199;82;20978;-86
2022/11/06 01:56:18;;;;;;;30.37;17.52;;;;;;;7.95;100.00;99106.76;2175394;82;21036;-86
2022/11/06 01:59:19;;;;;;;28.62;17.25;;;;;;;7.95;100.00;99110.67;2175287;82;20965;-86
2022/11/06 02:02:20;;;;;;;26.80;17.05;;;;;;;7.94;100.00;99109.85;2174733;82;20950;-88
2022/11/06 02:05:21;;;;;;;23.35;15.58;;;;;;;7.91;100.00;99111.47;2174752;82;21115;-88
2022/11/06 02:08:21;;;;;;;27.42;17.25;;;;;;;7.88;100.00;99112.28;2174458;82;21041;-90
2022/11/06 02:11:22;;;;;;;31.90;19.15;;;;;;;7.87;100.00;99114.55;2174152;81;21484;-90
2022/11/06 02:14:23;;;;;;;29.40;18.20;;;;;;;7.87;100.00;99116.67;2176665;82;20926;-87
2022/11/06 02:17:24;;;;;;;29.37;17.52;;;;;;;7.86;100.00;99118.10;2175546;82;21051;-90
2022/11/06 02:20:24;;;;;;;29.82;18.25;;;;;;;7.86;100.00;99115.04;2145204;82;20977;-87
2022/11/06 02:23:25;;;;;;;28.17;17.42;;;;;;;7.82;100.00;99120.20;2174349;82;20964;-89
2022/11/06 02:26:26;;;;;;;28.32;17.98;;;;;;;7.83;100.00;99114.50;2169222;82;21020;-86
2022/11/06 02:29:27;;;;;;;30.95;17.65;;;;;;;7.78;100.00;99110.25;2164855;82;20997;-86
2022/11/06 02:32:27;;;;;;;30.43;17.82;;;;;;;7.82;100.00;99109.78;2162516;82;21018;-87
2022/11/06 02:35:28;;;;;;;30.97;17.82;;;;;;;7.85;100.00;99113.86;2162152;82;21013;-87
2022/11/06 02:38:29;;;;;;;27.75;17.98;;;;;;;7.86;100.00;99115.50;2162290;82;21010;-88
2022/11/06 02:41:30;;;;;;;27.90;16.20;;;;;;;7.84;100.00;99114.84;2162593;82;21046;-88
2022/11/06 02:44:33;;;;;;;30.00;17.62;;;;;;;7.85;100.00;99116.47;2162664;82;21021;-87
2022/11/06 02:47:34;;;;;;;28.15;17.52;;;;;;;7.84;100.00;99114.84;2162552;82;20985;-87
2022/11/06 02:50:35;;;;;;;33.25;19.55;;;;;;;7.78;100.00;99118.07;2162213;81;20970;-89
2022/11/06 02:53:35;;;;;;;29.48;17.25;;;;;;;7.75;100.00;99114.44;2162078;82;21029;-88
2022/11/06 02:56:36;;;;;;;28.83;18.32;;;;;;;7.72;100.00;99121.27;2162164;82;21489;-88
2022/11/06 02:59:37;;;;;;;26.90;17.27;;;;;;;7.67;100.00;99123.83;2161990;82;21005;-89
2022/11/06 03:02:39;;;;;;;29.65;17.80;;;;;;;7.65;100.00;99128.38;2161701;82;21041;-87
2022/11/06 03:05:40;;;;;;;28.10;17.52;;;;;;;7.60;100.00;99131.13;2162078;82;21679;-89
2022/11/06 03:08:41;;;;;;;26.27;16.80;;;;;;;7.60;100.00;99140.25;2161595;82;20977;-89
2022/11/06 03:11:42;;;;;;;31.00;16.97;;;;;;;7.61;100.00;99140.58;2141138;82;20989;-88
2022/11/06 03:14:42;;;;;;;27.48;16.62;;;;;;;7.55;100.00;99135.47;2162292;82;20973;-87
2022/11/06 03:17:43;;;;;;;26.20;17.57;;;;;;;7.59;100.00;99139.43;2161966;82;20961;-88
2022/11/06 03:20:44;;;;;;;21.65;13.83;;;;;;;7.61;100.00;99132.27;2162342;82;21041;-88
2022/11/06 03:23:46;;;;;;;25.15;16.75;;;;;;;7.58;100.00;99139.06;2162828;81;20981;-86
2022/11/06 03:26:47;;;;;;;27.17;17.20;;;;;;;7.50;100.00;99139.48;2175846;82;21084;-87
2022/11/06 03:29:48;;;;;;;29.95;16.62;;;;;;;7.47;100.00;99139.30;2175836;82;21040;-87
2022/11/06 03:32:48;;;;;;;29.18;19.17;;;;;;;7.45;100.00;99140.42;2185309;81;21025;-87
2022/11/06 03:35:49;;;;;;;28.95;16.48;;;;;;;7.43;100.00;99137.16;2195529;81;20977;-88
2022/11/06 03:38:50;;;;;;;25.10;16.67;;;;;;;7.43;100.00;99139.28;2195424;81;20988;-87
2022/11/06 03:41:51;;;;;;;34.63;18.90;;;;;;;7.44;100.00;99134.40;2195362;81;21071;-88
2022/11/06 03:44:51;;;;;;;35.78;19.32;;;;;;;7.41;100.00;99138.13;2195510;81;20976;-87
2022/11/06 03:47:52;;;;;;;30.57;18.70;;;;;;;7.41;100.00;99146.44;2195386;81;20973;-88
2022/11/06 03:50:53;;;;;;;34.80;18.17;;;;;;;7.43;100.00;99150.19;2195223;81;20949;-87
2022/11/06 03:53:53;;;;;;;32.33;19.77;;;;;;;7.39;100.00;99150.95;2195254;81;21021;-89
2022/11/06 03:56:54;;;;;;;34.98;19.87;;;;;;;7.35;100.00;99156.95;2195134;81;21071;-88
2022/11/06 03:59:55;;;;;;;37.08;21.93;;;;;;;7.37;100.00;99155.01;2195392;81;20941;-87
2022/11/06 04:03:03;;;;;;;37.90;20.97;;;;;;;7.29;100.00;99152.31;2195551;81;21000;-87
2022/11/06 04:05:58;;;;;;;38.13;21.27;;;;;;;7.19;100.00;99158.56;2194522;80;21047;-87
2022/11/06 04:15:37;;;;;;;32.90;19.87;;;;;;;7.03;100.00;99169.62;2196034;81;21093;-87
2022/11/06 04:18:38;;;;;;;39.03;20.12;;;;;;;6.98;100.00;99170.07;2194881;81;21068;-91
2022/11/06 04:21:39;;;;;;;38.23;20.90;;;;;;;6.91;100.00;99165.58;2194650;81;21024;-92
2022/11/06 04:27:58;;;;;;;29.48;19.00;;;;;;;6.88;100.00;99168.00;2197317;80;20992;-87
2022/11/06 04:30:59;;;;;;;32.95;19.65;;;;;;;6.87;100.00;99171.58;2195610;81;20981;-90
2022/11/06 04:34:00;;;;;;;37.70;19.67;;;;;;;6.91;100.00;99169.00;2193927;81;21019;-92
2022/11/06 04:37:01;;;;;;;40.83;20.57;;;;;;;6.95;100.00;99171.67;2193804;81;21047;-90
2022/11/06 04:40:01;;;;;;;50.38;23.27;;;;;;;7.01;100.00;99174.16;2193946;81;20976;-91
2022/11/06 04:43:02;;;;;;;45.65;23.30;;;;;;;7.07;100.00;99174.41;2162363;81;20980;-89
2022/11/06 04:46:03;;;;;;;36.73;20.97;;;;;;;7.16;100.00;99179.70;2194683;81;21016;-91
2022/11/06 04:49:04;;;;;;;32.83;19.17;;;;;;;7.23;100.00;99173.77;2194628;81;21051;-88
2022/11/06 04:52:04;;;;;;;25.82;15.58;;;;;;;7.30;100.00;99179.19;2194386;81;21063;-87
2022/11/06 04:55:05;;;;;;;32.35;17.87;;;;;;;7.27;100.00;99182.09;2194137;81;21004;-93
2022/11/06 04:58:06;;;;;;;31.97;18.75;;;;;;;7.20;100.00;99177.95;2193736;81;21032;-92
2022/11/06 05:01:07;;;;;;;27.52;16.67;;;;;;;7.17;100.00;99174.34;2195491;81;21024;-87
2022/11/06 05:04:07;;;;;;;30.50;17.82;;;;;;;7.12;100.00;99182.58;2195551;81;21001;-88
2022/11/06 05:07:08;;;;;;;29.30;17.85;;;;;;;7.10;100.00;99175.89;2195662;81;21012;-87
2022/11/06 05:10:09;;;;;;;31.73;18.15;;;;;;;7.06;100.00;99175.38;2195626;81;21619;-87
2022/11/06 05:13:10;;;;;;;26.77;16.82;;;;;;;7.02;100.00;99181.00;2195513;81;20965;-90
2022/11/06 05:16:12;;;;;;;32.25;18.10;;;;;;;7.04;100.00;99184.27;2107254;84;21028;-87
2022/11/06 05:19:13;;;;;;;30.30;18.30;;;;;;;6.97;100.00;99193.16;2107428;85;21016;-87
2022/11/06 05:25:33;;;;;;;28.77;18.73;;;;;;;7.04;100.00;99194.23;2104339;84;21128;-88
2022/11/06 05:28:33;;;;;;;29.07;19.48;;;;;;;7.01;100.00;99194.50;2078435;85;20965;-88
2022/11/06 05:31:34;;;;;;;30.30;20.77;;;;;;;7.04;100.00;99198.59;2099588;84;21531;-88
2022/11/06 05:34:35;;;;;;;33.70;21.17;;;;;;;7.06;100.00;99199.29;2092593;85;21001;-86
2022/11/06 05:37:35;;;;;;;33.42;20.02;;;;;;;7.08;100.00;99199.96;2091459;85;21021;-93
2022/11/06 05:40:45;;;;;;;32.10;19.82;;;;;;;7.08;100.00;99199.96;2090721;85;20993;-90
2022/11/06 05:43:40;;;;;;;33.18;19.82;;;;;;;7.04;100.00;99203.80;2088466;85;21044;-90
2022/11/06 05:46:41;;;;;;;31.57;18.82;;;;;;;7.01;100.00;99204.92;2090590;85;21508;-92
2022/11/06 05:49:42;;;;;;;30.45;19.37;;;;;;;7.01;100.00;99214.52;2090765;85;21610;-89
2022/11/06 05:52:45;;;;;;;29.32;19.07;;;;;;;6.94;100.00;99215.56;2090717;85;21504;-93
2022/11/06 05:55:46;;;;;;;32.90;20.95;;;;;;;6.90;100.00;99210.32;2091759;85;21001;-88
2022/11/06 05:58:46;;;;;;;32.48;20.20;;;;;;;6.87;100.00;99213.70;2092045;85;21051;-88
2022/11/06 06:01:47;;;;;;;34.63;19.87;;;;;;;6.84;100.00;99218.70;2092369;85;21001;-88
2022/11/06 06:04:48;;;;;;;31.80;19.00;;;;;;;6.87;100.00;99218.42;2090813;85;21107;-87
2022/11/06 06:07:49;;;;;;;29.32;18.40;;;;;;;6.86;100.00;99212.89;2091594;85;21606;-88
2022/11/06 06:10:52;;;;;;;35.15;19.48;;;;;;;6.86;100.00;99220.70;2092471;85;21124;-84
2022/11/06 06:13:53;;;;;;;32.67;20.25;;;;;;;6.81;100.00;99211.19;2093019;85;21496;-85
2022/11/06 06:16:55;;;;;;;33.20;19.07;;;;;;;6.80;100.00;99221.26;2069173;85;21069;-89
2022/11/06 06:19:56;;;;;;;32.73;20.20;;;;;;;6.77;100.00;99222.86;2148772;82;21520;-87
2022/11/06 06:22:57;;;;;;;34.53;21.33;;;;;;;6.72;100.00;99217.24;2168802;82;20974;-88
2022/11/06 06:25:58;;;;;;;32.73;20.45;;;;;;;6.65;100.00;99223.97;2173631;82;21006;-82
2022/11/06 06:28:58;;;;;;;33.15;20.65;;;;;;;6.62;100.00;99227.69;2174561;82;20961;-87
2022/11/06 06:31:59;;;;;;;41.53;20.85;;;;;;;6.61;100.00;99228.66;2173324;82;21461;-88
2022/11/06 06:35:00;;;;;;;35.28;21.10;;;;;;;6.59;100.00;99224.08;2171997;82;21040;-88
2022/11/06 06:38:01;;;;;;;36.05;21.62;;;;;;;6.57;100.00;99225.98;2170300;82;21021;-89
2022/11/06 06:41:01;;;;;;;34.63;21.75;;;;;;;6.64;100.00;99230.96;2170424;82;21540;-87
2022/11/06 06:44:02;;;;;;;32.55;20.45;;;;;;;6.67;100.00;99229.37;2170476;82;21531;-86
2022/11/06 06:47:03;;;;;;;31.82;20.75;;;;;;;6.67;100.00;99231.97;2170757;82;20974;-91
2022/11/06 06:50:04;;;;;;;30.25;20.40;;;;;;;6.76;100.00;99230.30;2170838;82;20988;-90
2022/11/06 06:53:04;;;;;;;30.82;17.37;;;;;;;6.79;100.00;99233.45;2170216;82;21591;-88
2022/11/06 06:56:05;;;;;;;41.13;19.37;;;;;;;6.88;100.00;99238.77;2170665;82;20965;-90
2022/11/06 06:59:08;;;;;;;40.35;19.75;;;;;;;6.98;100.00;99242.15;2147685;82;21041;-91
2022/11/06 07:02:08;;;;;;;33.65;17.82;;;;;;;7.03;100.00;99245.13;2170948;82;21080;-86
2022/11/06 07:05:09;;;;;;;27.85;16.52;;;;;;;7.07;100.00;99247.80;2173099;81;21065;-84
2022/11/06 07:08:10;;;;;;;30.68;18.20;;;;;;;7.03;100.00;99249.85;2173789;81;21024;-85
2022/11/06 07:11:13;;;;;;;30.10;18.57;;;;;;;7.05;100.00;99251.03;2180520;80;20970;-82
2022/11/06 07:14:16;;;;;;;29.48;16.95;;;;;;;7.06;100.00;99257.88;2174707;82;21647;-86
2022/11/06 07:17:16;;;;;;;27.50;17.60;;;;;;;7.11;100.00;99256.95;2172317;82;21016;-85
2022/11/06 07:20:17;;;;;;;30.25;17.70;;;;;;;7.13;100.00;99264.98;2171383;82;20930;-86
2022/11/06 07:23:18;;;;;;;31.20;18.90;;;;;;;7.17;100.00;99260.29;2171808;82;21649;-86
2022/11/06 07:26:18;;;;;;;30.65;18.48;;;;;;;7.09;100.00;99267.52;2170302;80;21083;-86
2022/11/06 07:29:19;;;;;;;31.90;19.27;;;;;;;7.12;100.00;99260.70;2169049;81;21080;-87
2022/11/06 07:32:20;;;;;;;36.55;18.95;;;;;;;7.23;100.00;99260.20;2166461;82;21573;-86
2022/11/06 07:35:20;;;;;;;34.83;20.85;;;;;;;7.32;100.00;99260.64;2166296;82;20997;-89
2022/11/06 07:38:21;;;;;;;41.30;20.35;;;;;;;7.31;100.00;99262.39;2125732;82;21053;-86
2022/11/06 07:41:22;;;;;;;40.88;22.95;;;;;;;7.36;100.00;99260.67;2093336;84;20994;-86
2022/11/06 07:44:23;;;;;;;27.10;17.98;;;;;;;7.47;100.00;99255.73;2127935;84;21069;-84
2022/11/06 07:47:24;;;;;;;29.42;19.23;;;;;;;7.59;100.00;99259.31;2137418;83;21090;-86
2022/11/06 07:50:25;;;;;;;29.27;17.75;;;;;;;7.60;100.00;99255.73;2171322;82;20954;-89
2022/11/06 07:53:26;;;;;;;27.20;17.60;;;;;;;7.66;100.00;99255.61;2175580;82;21029;-87
2022/11/06 07:56:26;;;;;;;32.88;19.65;;;;;;;7.75;100.00;99256.52;2178950;81;21057;-88
2022/11/06 07:59:27;;;;;;;28.95;18.98;;;;;;;7.82;100.00;99254.95;2172092;81;20986;-88
2022/11/06 08:02:28;;;;;;;36.13;23.55;;;;;;;7.87;100.00;99256.65;2160846;82;20978;-88
2022/11/06 08:05:28;;;;;;;36.08;24.20;;;;;;;7.85;100.00;99261.98;2166794;81;21136;-88
2022/11/06 08:08:30;;;;;;;39.83;23.38;;;;;;;7.66;100.00;99256.42;2163631;82;21009;-88
2022/11/06 08:11:30;;;;;;;34.25;19.75;;;;;;;7.64;100.00;99261.46;2168812;81;21858;-87
2022/11/06 08:14:31;;;;;;;37.90;21.02;;;;;;;7.62;100.00;99260.80;2176361;81;20981;-85
2022/11/06 08:17:31;;;;;;;34.70;21.55;;;;;;;7.53;100.00;99260.38;2124347;84;21520;-85
2022/11/06 08:20:32;;;;;;;37.28;22.45;;;;;;;7.57;100.00;99266.44;2098645;84;21078;-86
2022/11/06 08:23:33;;;;;;;37.53;23.98;;;;;;;7.75;100.00;99267.76;2125833;84;21508;-87
2022/11/06 08:26:33;;;;;;;34.18;22.55;;;;;;;7.89;100.00;99262.52;2106582;83;21081;-87
2022/11/06 08:29:34;;;;;;;30.97;20.57;;;;;;;8.00;100.00;99266.20;2087733;84;21009;-86
2022/11/06 08:32:35;;;;;;;34.00;19.82;;;;;;;8.06;100.00;99268.72;2122367;82;21057;-87
2022/11/06 08:35:35;;;;;;;39.42;22.62;;;;;;;8.04;100.00;99268.02;2152219;82;20972;-89
2022/11/06 08:38:36;;;;;;;42.98;23.60;;;;;;;7.96;100.00;99271.40;2165181;82;21021;-85
2022/11/06 08:41:37;;;;;;;44.03;26.20;;;;;;;7.91;100.00;99276.23;2157822;82;21088;-86
2022/11/06 08:44:37;;;;;;;41.65;26.60;;;;;;;8.07;100.00;99266.44;2151381;82;20984;-88
2022/11/06 08:47:38;;;;;;;40.73;25.02;;;;;;;8.24;100.00;99273.43;2139573;83;20941;-87
2022/11/06 08:50:38;;;;;;;42.35;26.17;;;;;;;8.35;100.00;99281.53;2109526;82;20969;-86
2022/11/06 08:53:39;;;;;;;49.15;28.02;;;;;;;8.41;100.00;99275.23;2138744;82;21065;-86
2022/11/06 08:56:40;;;;;;;53.20;26.82;;;;;;;8.32;100.00;99273.50;2105500;83;21485;-88
2022/11/06 08:59:40;;;;;;;41.98;25.15;;;;;;;8.21;100.00;99282.36;2132220;82;21017;-88
2022/11/06 09:02:41;;;;;;;37.58;25.08;;;;;;;8.10;100.00;99281.29;2138601;83;21622;-88
2022/11/06 09:05:41;;;;;;;36.80;23.70;;;;;;;8.10;100.00;99286.50;2128981;83;21044;-86
2022/11/06 09:08:42;;;;;;;31.85;19.42;;;;;;;8.02;100.00;99290.34;2137283;83;21000;-87
2022/11/06 09:11:43;;;;;;;33.25;19.75;;;;;;;7.99;100.00;99287.56;2138510;83;21005;-87
2022/11/06 09:14:44;;;;;;;33.78;21.73;;;;;;;8.10;100.00;99285.20;2105836;82;21037;-87
2022/11/06 09:17:44;;;;;;;32.78;20.15;;;;;;;8.28;100.00;99280.80;2129425;82;20972;-86
2022/11/06 09:20:45;;;;;;;31.20;19.27;;;;;;;8.54;100.00;99282.16;2130676;82;20937;-85
2022/11/06 09:23:47;;;;;;;33.30;19.75;;;;;;;8.69;100.00;99282.92;2115670;82;20978;-88
2022/11/06 09:26:48;;;;;;;32.50;18.23;;;;;;;8.71;100.00;99284.41;2123526;82;20981;-88
2022/11/06 09:29:48;;;;;;;22.25;16.15;;;;;;;8.72;100.00;99278.20;2089260;84;21107;-89
2022/11/06 09:32:49;;;;;;;24.60;16.02;;;;;;;8.68;100.00;99272.13;2084494;85;21040;-88
2022/11/06 09:35:50;;;;;;;35.43;20.82;;;;;;;8.64;100.00;99268.20;2085588;85;20978;-89
2022/11/06 09:38:51;;;;;;;40.20;21.10;;;;;;;8.61;100.00;99266.72;2163434;80;21043;-89
2022/11/06 09:41:51;;;;;;;34.15;20.25;;;;;;;8.66;100.00;99254.01;2146346;80;20936;-88
2022/11/06 09:44:52;;;;;;;28.10;19.02;;;;;;;8.62;100.00;99263.63;2153214;81;21447;-84
2022/11/06 09:47:52;;;;;;;37.38;23.42;;;;;;;8.64;100.00;99260.36;2143418;82;20944;-88
2022/11/06 09:50:53;;;;;;;36.90;22.52;;;;;;;8.62;100.00;99260.52;2151647;82;20985;-90
2022/11/06 09:53:54;;;;;;;29.37;19.37;;;;;;;8.66;100.00;99262.33;2149763;82;21458;-88
2022/11/06 09:56:54;;;;;;;36.50;22.02;;;;;;;8.69;100.00;99254.20;2144420;82;20984;-86
2022/11/06 09:59:55;;;;;;;32.23;19.37;;;;;;;8.75;100.00;99260.91;2142639;82;21000;-84
2022/11/06 10:02:56;;;;;;;23.77;17.00;;;;;;;8.89;100.00;99260.03;2150791;82;21007;-95
2022/11/06 10:05:56;;;;;;;29.55;20.88;;;;;;;8.94;100.00;99248.61;2062417;85;21042;-89
2022/11/06 10:08:57;;;;;;;29.35;20.05;;;;;;;9.05;100.00;99246.56;2096935;84;21089;-93
2022/11/06 10:11:58;;;;;;;29.95;17.98;;;;;;;9.23;100.00;99242.52;2150914;82;20964;-90
2022/11/06 10:14:59;;;;;;;32.13;18.45;;;;;;;9.39;100.00;99245.20;2139095;82;21489;-89
2022/11/06 10:17:59;;;;;;;29.37;18.20;;;;;;;9.45;100.00;99239.02;2143526;82;21027;-91
2022/11/06 10:21:00;;;;;;;24.95;16.48;;;;;;;9.48;100.00;99235.58;2145360;82;20964;-90
2022/11/06 10:24:00;;;;;;;27.10;17.92;;;;;;;9.54;100.00;99239.37;2151056;81;21436;-88
2022/11/06 10:27:01;;;;;;;22.00;16.20;;;;;;;9.55;100.00;99235.28;2157058;82;21097;-88
2022/11/06 10:30:02;;;;;;;18.80;14.07;;;;;;;9.57;100.00;99241.16;2151165;82;21635;-89
2022/11/06 10:33:02;;;;;;;22.75;16.50;;;;;;;9.55;100.00;99238.38;2172566;81;20990;-89
2022/11/06 10:36:03;;;;;;;24.80;17.12;;;;;;;9.65;100.00;99231.21;2153649;82;20958;-92
2022/11/06 10:39:04;;;;;;;20.92;15.98;;;;;;;9.65;100.00;99231.21;2157097;81;20998;-89
2022/11/06 10:42:04;;;;;;;17.73;14.07;;;;;;;9.76;100.00;99229.59;2157562;81;21053;-88
2022/11/06 10:45:05;;;;;;;22.93;15.83;;;;;;;9.94;100.00;99239.91;2170255;82;20988;-91
2022/11/06 10:48:05;;;;;;;31.40;18.25;;;;;;;10.05;100.00;99236.15;2128000;82;21464;-91
2022/11/06 10:51:06;;;;;;;22.80;16.93;;;;;;;10.12;100.00;99230.59;2184801;81;21067;-92
2022/11/06 10:54:07;;;;;;;22.07;15.75;;;;;;;10.20;100.00;99234.03;2189432;81;21001;-90
2022/11/06 10:57:07;;;;;;;24.72;17.65;;;;;;;10.27;100.00;99236.03;2148931;82;21024;-91
2022/11/06 11:00:08;;;;;;;20.70;15.83;;;;;;;10.27;100.00;99231.61;2144503;83;21019;-91
2022/11/06 11:03:09;;;;;;;24.23;17.55;;;;;;;10.27;100.00;99211.98;2147759;83;20972;-91
2022/11/06 11:06:09;;;;;;;21.37;16.35;;;;;;;10.33;100.00;99210.48;2150857;81;21043;-89
2022/11/06 11:09:10;;;;;;;19.35;14.07;;;;;;;10.43;100.00;99206.73;2109706;83;21015;-91
2022/11/06 11:12:11;;;;;;;21.65;15.53;;;;;;;10.61;100.00;99205.71;2150055;83;21107;-90
2022/11/06 11:15:11;;;;;;;24.07;16.05;;;;;;;10.65;100.00;99199.14;2143267;83;21053;-91
2022/11/06 11:18:12;;;;;;;29.52;18.60;;;;;;;10.61;100.00;99203.09;2163282;82;21531;-91
2022/11/06 11:21:14;;;;;;;22.02;16.10;;;;;;;10.51;100.00;99201.94;2153974;82;20962;-91
2022/11/06 11:24:15;;;;;;;23.20;15.93;;;;;;;10.40;100.00;99195.27;2159446;82;20973;-92
2022/11/06 11:27:16;;;;;;;22.77;16.20;;;;;;;10.40;100.00;99179.55;2157587;82;21534;-92
2022/11/06 11:30:17;;;;;;;22.65;16.35;;;;;;;10.35;100.00;99183.18;2116993;84;20967;-92
2022/11/06 11:33:18;;;;;;;22.37;14.58;;;;;;;10.27;100.00;99187.12;2133494;83;20950;-91
2022/11/06 11:36:18;;;;;;;22.75;16.05;;;;;;;10.19;100.00;99181.37;2133307;83;21092;-92
2022/11/06 11:39:19;;;;;;;21.80;14.75;;;;;;;9.96;100.00;99175.97;2133225;83;20958;-91
2022/11/06 11:42:20;;;;;;;22.02;15.03;;;;;;;9.96;100.00;99175.97;2131750;83;21513;-92
2022/11/06 11:45:21;;;;;;;25.75;17.95;;;;;;;9.90;100.00;99179.76;2137052;83;21074;-92
2022/11/06 11:48:22;;;;;;;21.73;16.52;;;;;;;9.77;100.00;99174.17;2124011;84;20963;-90
2022/11/06 11:51:22;;;;;;;22.65;16.10;;;;;;;9.69;100.00;99177.60;2137301;83;20994;-92
2022/11/06 11:54:25;;;;;;;24.95;16.65;;;;;;;9.58;100.00;99168.28;2146587;83;21430;-91
2022/11/06 11:57:26;;;;;;;27.22;17.35;;;;;;;9.53;100.00;99173.20;2099016;84;20979;-91
2022/11/06 12:00:27;;;;;;;26.33;17.60;;;;;;;9.53;100.00;99173.20;2145690;83;21489;-90
2022/11/06 12:03:27;;;;;;;26.80;15.93;;;;;;;9.52;100.00;99165.03;2145364;83;20959;-90
2022/11/06 12:06:28;;;;;;;30.60;19.15;;;;;;;9.43;100.00;99170.41;2131259;83;20970;-90
2022/11/06 12:09:29;;;;;;;28.27;18.02;;;;;;;9.37;100.00;99169.24;2131288;83;20978;-92
2022/11/06 12:12:32;;;;;;;28.15;17.87;;;;;;;9.29;100.00;99162.20;2132161;83;20958;-91
2022/11/06 12:15:33;;;;;;;26.12;16.70;;;;;;;9.32;100.00;99160.56;2131383;83;21033;-92
2022/11/06 12:18:34;;;;;;;24.67;15.55;;;;;;;9.35;100.00;99160.27;2133095;83;20978;-91
2022/11/06 12:21:34;;;;;;;34.33;18.98;;;;;;;9.27;100.00;99158.12;2108292;84;21533;-91
2022/11/06 12:24:35;;;;;;;26.70;15.13;;;;;;;9.22;100.00;99155.16;2141486;83;20943;-91
2022/11/06 12:27:36;;;;;;;30.30;16.67;;;;;;;9.23;100.00;99149.77;2114247;80;21084;-92
2022/11/06 12:30:37;;;;;;;29.40;16.60;;;;;;;9.29;100.00;99156.97;2068273;85;20981;-91
2022/11/06 12:33:38;;;;;;;40.65;21.23;;;;;;;9.36;100.00;99154.05;2083108;85;21138;-91
2022/11/06 12:36:39;;;;;;;32.40;18.27;;;;;;;9.39;100.00;99153.72;2124504;84;20965;-90
2022/11/06 12:39:39;;;;;;;23.52;16.35;;;;;;;9.43;100.00;99148.19;2123913;84;21062;-91
2022/11/06 12:42:40;;;;;;;27.73;16.12;;;;;;;9.43;100.00;99138.55;2125437;83;20977;-91
2022/11/06 12:45:41;;;;;;;22.35;14.63;;;;;;;9.40;100.00;99131.02;2123515;84;21039;-91
2022/11/06 12:48:43;;;;;;;28.55;16.17;;;;;;;9.41;100.00;99137.88;2122515;84;21013;-92
2022/11/06 12:51:44;;;;;;;26.05;16.12;;;;;;;9.40;100.00;99131.02;2125268;84;21045;-91
2022/11/06 12:54:45;;;;;;;27.05;15.70;;;;;;;9.42;100.00;99131.69;2124035;84;21017;-91
2022/11/06 12:57:45;;;;;;;22.58;15.32;;;;;;;9.43;100.00;99137.73;2121492;84;21042;-91
2022/11/06 13:00:46;;;;;;;25.88;15.83;;;;;;;9.44;100.00;99140.67;2124020;84;21033;-93
2022/11/06 13:03:49;;;;;;;31.10;16.35;;;;;;;9.48;100.00;99139.36;2124550;84;21025;-91
2022/11/06 13:06:49;;;;;;;27.45;17.07;;;;;;;9.49;100.00;99135.27;2124988;84;21081;-92
2022/11/06 13:09:50;;;;;;;30.50;16.62;;;;;;;9.48;100.00;99131.03;2125362;84;21033;-91
2022/11/06 13:12:51;;;;;;;27.82;16.15;;;;;;;9.49;100.00;99133.15;2123554;83;20988;-92
2022/11/06 13:15:52;;;;;;;21.97;14.83;;;;;;;9.49;100.00;99135.77;2125224;84;20970;-91
2022/11/06 13:18:53;;;;;;;29.45;16.80;;;;;;;9.49;100.00;99133.96;2124745;84;20989;-91
2022/11/06 13:21:53;;;;;;;22.90;15.85;;;;;;;9.50;100.00;99136.09;2122755;84;20977;-90
2022/11/06 13:24:54;;;;;;;21.10;14.58;;;;;;;9.51;100.00;99135.95;2123632;84;21045;-92
2022/11/06 13:27:55;;;;;;;22.27;14.50;;;;;;;9.52;100.00;99131.54;2155311;81;21054;-91
2022/11/06 13:30:58;;;;;;;22.90;14.35;;;;;;;9.54;100.00;99121.73;2178494;81;21041;-88
2022/11/06 13:33:58;;;;;;;20.32;14.80;;;;;;;9.54;100.00;99121.73;2171802;81;21564;-87
2022/11/06 13:36:59;;;;;;;24.80;15.55;;;;;;;9.53;100.00;99126.14;2170111;82;21024;-92
2022/11/06 13:40:03;;;;;;;22.80;14.10;;;;;;;9.50;100.00;99126.45;2170131;82;21063;-89
2022/11/06 13:43:02;;;;;;;20.27;14.80;;;;;;;9.48;100.00;99123.19;2169864;82;21059;-89
2022/11/06 13:46:03;;;;;;;20.25;14.53;;;;;;;9.46;100.00;99121.23;2145351;81;20989;-89
2022/11/06 13:49:04;;;;;;;25.72;14.45;;;;;;;9.47;100.00;99122.05;2139232;82;21348;-89
2022/11/06 13:52:05;;;;;;;23.90;13.85;;;;;;;9.47;100.00;99113.71;2176880;82;21076;-88
2022/11/06 13:55:05;;;;;;;19.40;12.58;;;;;;;9.49;100.00;99112.23;2159706;82;20954;-90
2022/11/06 13:58:06;;;;;;;27.35;13.03;;;;;;;9.48;100.00;99110.61;2148918;81;21541;-92
2022/11/06 14:01:06;;;;;;;22.87;13.20;;;;;;;9.47;100.00;99098.03;2148865;83;20999;-90
2022/11/06 14:04:07;;;;;;;20.05;14.83;;;;;;;9.48;100.00;99092.31;2148506;83;20959;-91